sensor_id;sensor_type;location;lat;lon;timestamp;temperature;humidity
1347;DHT22;667;48.796;9.480;2023-06-22T00:01:04;22.70;81.20
1347;DHT22;667;48.796;9.480;2023-06-22T00:03:30;22.70;81.40
1347;DHT22;667;48.796;9.480;2023-06-22T00:05:56;22.70;81.40
1347;DHT22;667;48.796;9.480;2023-06-22T00:08:22;22.70;81.50
1347;DHT22;667;48.796;9.480;2023-06-22T00:10:47;22.70;81.50
1347;DHT22;667;48.796;9.480;2023-06-22T00:13:14;22.70;81.50
1347;DHT22;667;48.796;9.480;2023-06-22T00:15:41;22.70;81.40
1347;DHT22;667;48.796;9.480;2023-06-22T00:18:07;22.70;81.50
1347;DHT22;667;48.796;9.480;2023-06-22T00:20:33;22.70;81.50
1347;DHT22;667;48.796;9.480;2023-06-22T00:23:02;22.70;81.40
1347;DHT22;667;48.796;9.480;2023-06-22T00:25:36;22.70;81.40
1347;DHT22;667;48.796;9.480;2023-06-22T00:28:03;22.70;81.50
1347;DHT22;667;48.796;9.480;2023-06-22T00:30:30;22.70;81.50
1347;DHT22;667;48.796;9.480;2023-06-22T00:32:55;22.70;81.60
1347;DHT22;667;48.796;9.480;2023-06-22T00:35:21;22.60;81.40
1347;DHT22;667;48.796;9.480;2023-06-22T00:37:46;22.60;81.40
1347;DHT22;667;48.796;9.480;2023-06-22T00:40:12;22.60;81.60
1347;DHT22;667;48.796;9.480;2023-06-22T00:42:40;22.60;81.70
1347;DHT22;667;48.796;9.480;2023-06-22T00:45:06;22.60;81.80
1347;DHT22;667;48.796;9.480;2023-06-22T00:47:32;22.60;81.80
1347;DHT22;667;48.796;9.480;2023-06-22T00:49:58;22.60;81.80
1347;DHT22;667;48.796;9.480;2023-06-22T00:52:26;22.60;81.70
1347;DHT22;667;48.796;9.480;2023-06-22T00:54:56;22.60;81.70
1347;DHT22;667;48.796;9.480;2023-06-22T00:57:22;22.60;81.80
1347;DHT22;667;48.796;9.480;2023-06-22T00:59:51;22.60;81.70
1347;DHT22;667;48.796;9.480;2023-06-22T01:02:16;22.60;81.90
1347;DHT22;667;48.796;9.480;2023-06-22T01:04:42;22.50;81.80
1347;DHT22;667;48.796;9.480;2023-06-22T01:12:40;22.50;81.80
1347;DHT22;667;48.796;9.480;2023-06-22T01:15:16;22.50;81.70
1347;DHT22;667;48.796;9.480;2023-06-22T01:17:45;22.50;81.60
1347;DHT22;667;48.796;9.480;2023-06-22T01:20:14;22.40;81.50
1347;DHT22;667;48.796;9.480;2023-06-22T01:23:10;22.40;81.70
1347;DHT22;667;48.796;9.480;2023-06-22T01:25:47;22.40;81.70
1347;DHT22;667;48.796;9.480;2023-06-22T01:31:03;22.40;81.60
1347;DHT22;667;48.796;9.480;2023-06-22T01:33:37;22.40;81.60
1347;DHT22;667;48.796;9.480;2023-06-22T01:36:03;22.40;81.50
1347;DHT22;667;48.796;9.480;2023-06-22T01:38:30;22.40;81.60
1347;DHT22;667;48.796;9.480;2023-06-22T01:40:57;22.30;81.60
1347;DHT22;667;48.796;9.480;2023-06-22T01:43:26;22.30;81.70
1347;DHT22;667;48.796;9.480;2023-06-22T01:45:52;22.30;81.80
1347;DHT22;667;48.796;9.480;2023-06-22T01:48:19;22.30;81.80
1347;DHT22;667;48.796;9.480;2023-06-22T01:50:45;22.30;81.90
1347;DHT22;667;48.796;9.480;2023-06-22T01:53:11;22.30;81.90
1347;DHT22;667;48.796;9.480;2023-06-22T01:55:36;22.30;82.00
1347;DHT22;667;48.796;9.480;2023-06-22T01:58:02;22.20;81.70
1347;DHT22;667;48.796;9.480;2023-06-22T02:00:31;22.30;82.00
1347;DHT22;667;48.796;9.480;2023-06-22T02:03:01;22.20;81.90
1347;DHT22;667;48.796;9.480;2023-06-22T02:05:33;22.20;82.10
1347;DHT22;667;48.796;9.480;2023-06-22T02:08:20;22.20;82.10
1347;DHT22;667;48.796;9.480;2023-06-22T02:10:48;22.20;81.90
1347;DHT22;667;48.796;9.480;2023-06-22T02:13:15;22.20;82.10
1347;DHT22;667;48.796;9.480;2023-06-22T02:15:41;22.20;82.10
1347;DHT22;667;48.796;9.480;2023-06-22T02:18:07;22.20;82.20
1347;DHT22;667;48.796;9.480;2023-06-22T02:20:36;22.20;82.10
1347;DHT22;667;48.796;9.480;2023-06-22T02:23:02;22.20;82.00
1347;DHT22;667;48.796;9.480;2023-06-22T02:25:28;22.20;82.00
1347;DHT22;667;48.796;9.480;2023-06-22T02:27:53;22.10;81.90
1347;DHT22;667;48.796;9.480;2023-06-22T02:30:19;22.10;82.00
1347;DHT22;667;48.796;9.480;2023-06-22T02:32:44;22.10;82.00
1347;DHT22;667;48.796;9.480;2023-06-22T02:35:10;22.10;81.90
1347;DHT22;667;48.796;9.480;2023-06-22T02:37:39;22.10;82.00
1347;DHT22;667;48.796;9.480;2023-06-22T02:40:07;22.10;82.10
1347;DHT22;667;48.796;9.480;2023-06-22T02:42:34;22.00;82.00
1347;DHT22;667;48.796;9.480;2023-06-22T02:45:00;22.00;82.30
1347;DHT22;667;48.796;9.480;2023-06-22T02:47:26;21.90;82.40
1347;DHT22;667;48.796;9.480;2023-06-22T02:49:52;21.90;82.60
1347;DHT22;667;48.796;9.480;2023-06-22T02:52:17;21.90;82.80
1347;DHT22;667;48.796;9.480;2023-06-22T02:54:43;21.90;83.10
1347;DHT22;667;48.796;9.480;2023-06-22T02:57:11;21.90;83.20
1347;DHT22;667;48.796;9.480;2023-06-22T02:59:39;21.90;83.10
1347;DHT22;667;48.796;9.480;2023-06-22T03:02:07;21.90;82.90
1347;DHT22;667;48.796;9.480;2023-06-22T03:04:33;21.90;82.70
1347;DHT22;667;48.796;9.480;2023-06-22T03:06:59;21.80;82.40
1347;DHT22;667;48.796;9.480;2023-06-22T03:09:26;21.80;82.60
1347;DHT22;667;48.796;9.480;2023-06-22T03:11:56;21.80;82.70
1347;DHT22;667;48.796;9.480;2023-06-22T03:14:22;21.80;82.80
1347;DHT22;667;48.796;9.480;2023-06-22T03:16:47;21.80;82.90
1347;DHT22;667;48.796;9.480;2023-06-22T03:19:13;21.80;83.00
1347;DHT22;667;48.796;9.480;2023-06-22T03:21:40;21.80;82.90
1347;DHT22;667;48.796;9.480;2023-06-22T03:24:08;21.70;82.70
1347;DHT22;667;48.796;9.480;2023-06-22T03:26:34;21.80;82.90
1347;DHT22;667;48.796;9.480;2023-06-22T03:29:00;21.80;82.80
1347;DHT22;667;48.796;9.480;2023-06-22T03:31:26;21.80;83.40
1347;DHT22;667;48.796;9.480;2023-06-22T03:33:52;21.80;82.90
1347;DHT22;667;48.796;9.480;2023-06-22T03:36:18;21.70;82.80
1347;DHT22;667;48.796;9.480;2023-06-22T03:38:47;21.70;82.90
1347;DHT22;667;48.796;9.480;2023-06-22T03:41:13;21.70;82.80
1347;DHT22;667;48.796;9.480;2023-06-22T03:43:39;21.70;82.80
1347;DHT22;667;48.796;9.480;2023-06-22T03:46:05;21.70;82.80
1347;DHT22;667;48.796;9.480;2023-06-22T03:48:30;21.80;82.90
1347;DHT22;667;48.796;9.480;2023-06-22T03:50:56;21.70;82.70
1347;DHT22;667;48.796;9.480;2023-06-22T03:53:21;21.80;82.60
1347;DHT22;667;48.796;9.480;2023-06-22T03:55:53;21.80;82.50
1347;DHT22;667;48.796;9.480;2023-06-22T03:58:19;21.70;82.30
1347;DHT22;667;48.796;9.480;2023-06-22T04:00:50;21.70;82.40
1347;DHT22;667;48.796;9.480;2023-06-22T04:03:16;21.70;82.40
1347;DHT22;667;48.796;9.480;2023-06-22T04:05:44;21.80;82.60
1347;DHT22;667;48.796;9.480;2023-06-22T04:08:10;21.70;82.50
1347;DHT22;667;48.796;9.480;2023-06-22T04:10:35;21.70;82.50
1347;DHT22;667;48.796;9.480;2023-06-22T04:13:01;21.80;82.70
1347;DHT22;667;48.796;9.480;2023-06-22T04:15:27;21.80;82.90
1347;DHT22;667;48.796;9.480;2023-06-22T04:17:54;21.70;82.90
1347;DHT22;667;48.796;9.480;2023-06-22T04:20:20;21.70;83.00
1347;DHT22;667;48.796;9.480;2023-06-22T04:22:46;21.70;83.10
1347;DHT22;667;48.796;9.480;2023-06-22T04:25:11;21.70;83.30
1347;DHT22;667;48.796;9.480;2023-06-22T04:27:37;21.70;83.30
1347;DHT22;667;48.796;9.480;2023-06-22T04:30:06;21.80;83.40
1347;DHT22;667;48.796;9.480;2023-06-22T04:32:32;21.80;83.50
1347;DHT22;667;48.796;9.480;2023-06-22T04:34:58;21.80;83.50
1347;DHT22;667;48.796;9.480;2023-06-22T04:37:25;21.80;83.50
1347;DHT22;667;48.796;9.480;2023-06-22T04:39:51;21.90;83.70
1347;DHT22;667;48.796;9.480;2023-06-22T04:42:17;21.90;83.70
1347;DHT22;667;48.796;9.480;2023-06-22T04:44:43;21.90;83.80
1347;DHT22;667;48.796;9.480;2023-06-22T04:47:08;22.00;83.90
1347;DHT22;667;48.796;9.480;2023-06-22T04:49:36;22.00;83.90
1347;DHT22;667;48.796;9.480;2023-06-22T04:52:06;22.00;84.00
1347;DHT22;667;48.796;9.480;2023-06-22T04:54:33;22.10;84.00
1347;DHT22;667;48.796;9.480;2023-06-22T04:57:00;22.10;83.90
1347;DHT22;667;48.796;9.480;2023-06-22T04:59:27;22.20;84.20
1347;DHT22;667;48.796;9.480;2023-06-22T05:01:59;22.20;84.10
1347;DHT22;667;48.796;9.480;2023-06-22T05:04:26;22.20;84.00
1347;DHT22;667;48.796;9.480;2023-06-22T05:06:53;22.30;84.10
1347;DHT22;667;48.796;9.480;2023-06-22T05:09:19;22.40;84.30
1347;DHT22;667;48.796;9.480;2023-06-22T05:11:45;22.40;84.40
1347;DHT22;667;48.796;9.480;2023-06-22T05:14:11;22.50;84.50
1347;DHT22;667;48.796;9.480;2023-06-22T05:16:37;22.60;84.60
1347;DHT22;667;48.796;9.480;2023-06-22T05:19:03;22.60;84.00
1347;DHT22;667;48.796;9.480;2023-06-22T05:21:29;22.70;83.90
1347;DHT22;667;48.796;9.480;2023-06-22T05:23:56;22.70;83.50
1347;DHT22;667;48.796;9.480;2023-06-22T05:26:26;22.70;83.30
1347;DHT22;667;48.796;9.480;2023-06-22T05:28:52;22.80;83.10
1347;DHT22;667;48.796;9.480;2023-06-22T05:31:17;22.80;83.10
1347;DHT22;667;48.796;9.480;2023-06-22T05:33:45;22.80;83.60
1347;DHT22;667;48.796;9.480;2023-06-22T05:36:11;22.90;82.90
1347;DHT22;667;48.796;9.480;2023-06-22T05:38:38;23.00;82.60
1347;DHT22;667;48.796;9.480;2023-06-22T05:41:04;23.10;82.60
1347;DHT22;667;48.796;9.480;2023-06-22T05:43:30;23.10;82.30
1347;DHT22;667;48.796;9.480;2023-06-22T05:45:55;23.20;82.10
1347;DHT22;667;48.796;9.480;2023-06-22T05:48:21;23.30;81.90
1347;DHT22;667;48.796;9.480;2023-06-22T05:50:47;23.30;81.80
1347;DHT22;667;48.796;9.480;2023-06-22T05:53:12;23.40;81.80
1347;DHT22;667;48.796;9.480;2023-06-22T05:55:38;23.50;81.40
1347;DHT22;667;48.796;9.480;2023-06-22T05:58:04;23.50;80.30
1347;DHT22;667;48.796;9.480;2023-06-22T06:00:30;23.60;79.90
1347;DHT22;667;48.796;9.480;2023-06-22T06:02:55;23.70;79.50
1347;DHT22;667;48.796;9.480;2023-06-22T06:05:21;23.70;78.60
1347;DHT22;667;48.796;9.480;2023-06-22T06:07:49;23.80;78.80
1347;DHT22;667;48.796;9.480;2023-06-22T06:10:14;23.90;78.80
1347;DHT22;667;48.796;9.480;2023-06-22T06:12:40;24.00;78.40
1347;DHT22;667;48.796;9.480;2023-06-22T06:15:06;24.10;78.40
1347;DHT22;667;48.796;9.480;2023-06-22T06:17:31;24.20;78.40
1347;DHT22;667;48.796;9.480;2023-06-22T06:19:59;24.30;78.30
1347;DHT22;667;48.796;9.480;2023-06-22T06:22:24;24.40;78.20
1347;DHT22;667;48.796;9.480;2023-06-22T06:24:50;24.50;77.50
1347;DHT22;667;48.796;9.480;2023-06-22T06:27:16;24.60;76.10
1347;DHT22;667;48.796;9.480;2023-06-22T06:29:43;24.60;76.40
1347;DHT22;667;48.796;9.480;2023-06-22T06:32:11;24.70;76.40
1347;DHT22;667;48.796;9.480;2023-06-22T06:34:36;24.80;75.70
1347;DHT22;667;48.796;9.480;2023-06-22T06:37:02;24.80;75.00
1347;DHT22;667;48.796;9.480;2023-06-22T06:39:28;24.90;74.90
1347;DHT22;667;48.796;9.480;2023-06-22T06:41:53;25.00;74.60
1347;DHT22;667;48.796;9.480;2023-06-22T06:44:19;25.10;74.10
1347;DHT22;667;48.796;9.480;2023-06-22T06:46:44;25.10;74.30
1347;DHT22;667;48.796;9.480;2023-06-22T06:49:10;25.20;73.90
1347;DHT22;667;48.796;9.480;2023-06-22T06:51:36;25.20;73.20
1347;DHT22;667;48.796;9.480;2023-06-22T06:54:01;25.30;73.10
1347;DHT22;667;48.796;9.480;2023-06-22T06:56:28;25.40;72.80
1347;DHT22;667;48.796;9.480;2023-06-22T06:58:54;25.40;72.30
1347;DHT22;667;48.796;9.480;2023-06-22T07:01:20;25.40;72.00
1347;DHT22;667;48.796;9.480;2023-06-22T07:03:46;25.40;71.40
1347;DHT22;667;48.796;9.480;2023-06-22T07:06:13;25.50;71.40
1347;DHT22;667;48.796;9.480;2023-06-22T07:08:38;25.60;71.20
1347;DHT22;667;48.796;9.480;2023-06-22T07:11:05;25.60;70.40
1347;DHT22;667;48.796;9.480;2023-06-22T07:13:30;25.70;69.90
1347;DHT22;667;48.796;9.480;2023-06-22T07:15:56;25.80;70.30
1347;DHT22;667;48.796;9.480;2023-06-22T07:18:22;25.90;70.50
1347;DHT22;667;48.796;9.480;2023-06-22T07:20:47;26.00;69.80
1347;DHT22;667;48.796;9.480;2023-06-22T07:23:13;26.00;68.70
1347;DHT22;667;48.796;9.480;2023-06-22T07:25:38;26.10;68.50
1347;DHT22;667;48.796;9.480;2023-06-22T07:28:06;26.20;67.70
1347;DHT22;667;48.796;9.480;2023-06-22T07:30:32;26.20;67.90
1347;DHT22;667;48.796;9.480;2023-06-22T07:32:58;26.20;67.10
1347;DHT22;667;48.796;9.480;2023-06-22T07:35:28;26.40;67.50
1347;DHT22;667;48.796;9.480;2023-06-22T07:37:54;26.50;67.20
1347;DHT22;667;48.796;9.480;2023-06-22T07:40:20;26.50;67.10
1347;DHT22;667;48.796;9.480;2023-06-22T07:42:45;26.60;66.70
1347;DHT22;667;48.796;9.480;2023-06-22T07:45:13;26.70;66.60
1347;DHT22;667;48.796;9.480;2023-06-22T07:47:39;26.80;66.40
1347;DHT22;667;48.796;9.480;2023-06-22T07:50:05;26.80;66.00
1347;DHT22;667;48.796;9.480;2023-06-22T07:52:31;26.90;65.60
1347;DHT22;667;48.796;9.480;2023-06-22T07:54:57;27.00;65.40
1347;DHT22;667;48.796;9.480;2023-06-22T07:57:23;27.10;65.30
1347;DHT22;667;48.796;9.480;2023-06-22T07:59:57;27.20;65.20
1347;DHT22;667;48.796;9.480;2023-06-22T08:02:23;27.30;64.20
1347;DHT22;667;48.796;9.480;2023-06-22T08:04:48;27.40;64.10
1347;DHT22;667;48.796;9.480;2023-06-22T08:07:14;27.40;63.70
1347;DHT22;667;48.796;9.480;2023-06-22T08:09:46;27.50;63.90
1347;DHT22;667;48.796;9.480;2023-06-22T08:12:13;27.60;63.70
1347;DHT22;667;48.796;9.480;2023-06-22T08:14:39;27.60;62.50
1347;DHT22;667;48.796;9.480;2023-06-22T08:17:05;27.80;62.90
1347;DHT22;667;48.796;9.480;2023-06-22T08:19:30;27.80;62.10
1347;DHT22;667;48.796;9.480;2023-06-22T08:21:56;28.00;62.00
1347;DHT22;667;48.796;9.480;2023-06-22T08:24:23;28.10;61.70
1347;DHT22;667;48.796;9.480;2023-06-22T08:26:51;28.20;60.70
1347;DHT22;667;48.796;9.480;2023-06-22T08:29:17;28.30;59.60
1347;DHT22;667;48.796;9.480;2023-06-22T08:31:43;28.40;59.80
1347;DHT22;667;48.796;9.480;2023-06-22T08:34:08;28.40;59.40
1347;DHT22;667;48.796;9.480;2023-06-22T08:36:34;28.60;59.30
1347;DHT22;667;48.796;9.480;2023-06-22T08:39:03;28.70;59.10
1347;DHT22;667;48.796;9.480;2023-06-22T08:41:29;28.80;58.70
1347;DHT22;667;48.796;9.480;2023-06-22T08:43:55;28.80;58.60
1347;DHT22;667;48.796;9.480;2023-06-22T08:46:21;28.90;58.60
1347;DHT22;667;48.796;9.480;2023-06-22T08:48:49;29.00;58.70
1347;DHT22;667;48.796;9.480;2023-06-22T08:51:16;29.10;58.30
1347;DHT22;667;48.796;9.480;2023-06-22T08:53:42;29.20;57.80
1347;DHT22;667;48.796;9.480;2023-06-22T08:56:08;29.30;57.20
1347;DHT22;667;48.796;9.480;2023-06-22T08:58:34;29.40;56.70
1347;DHT22;667;48.796;9.480;2023-06-22T09:00:59;29.50;56.30
1347;DHT22;667;48.796;9.480;2023-06-22T09:03:26;29.60;56.20
1347;DHT22;667;48.796;9.480;2023-06-22T09:05:52;29.70;56.50
1347;DHT22;667;48.796;9.480;2023-06-22T09:08:17;29.80;56.80
1347;DHT22;667;48.796;9.480;2023-06-22T09:10:43;30.00;55.70
1347;DHT22;667;48.796;9.480;2023-06-22T09:13:09;30.00;55.60
1347;DHT22;667;48.796;9.480;2023-06-22T09:15:34;30.10;56.00
1347;DHT22;667;48.796;9.480;2023-06-22T09:18:00;30.20;55.40
1347;DHT22;667;48.796;9.480;2023-06-22T09:20:26;30.30;54.30
1347;DHT22;667;48.796;9.480;2023-06-22T09:22:51;30.40;54.60
1347;DHT22;667;48.796;9.480;2023-06-22T09:25:17;30.40;54.10
1347;DHT22;667;48.796;9.480;2023-06-22T09:27:46;30.50;53.60
1347;DHT22;667;48.796;9.480;2023-06-22T09:30:11;30.50;53.70
1347;DHT22;667;48.796;9.480;2023-06-22T09:32:37;30.60;53.80
1347;DHT22;667;48.796;9.480;2023-06-22T09:35:05;30.70;54.30
1347;DHT22;667;48.796;9.480;2023-06-22T09:37:32;30.80;53.30
1347;DHT22;667;48.796;9.480;2023-06-22T09:39:57;30.90;52.70
1347;DHT22;667;48.796;9.480;2023-06-22T09:42:23;30.90;52.40
1347;DHT22;667;48.796;9.480;2023-06-22T09:44:48;31.00;52.00
1347;DHT22;667;48.796;9.480;2023-06-22T09:47:14;31.10;52.10
1347;DHT22;667;48.796;9.480;2023-06-22T09:49:39;31.20;52.30
1347;DHT22;667;48.796;9.480;2023-06-22T09:52:05;31.30;52.10
1347;DHT22;667;48.796;9.480;2023-06-22T09:54:31;31.40;52.00
1347;DHT22;667;48.796;9.480;2023-06-22T09:56:56;31.50;51.50
1347;DHT22;667;48.796;9.480;2023-06-22T09:59:22;31.50;51.30
1347;DHT22;667;48.796;9.480;2023-06-22T10:01:48;31.50;52.20
1347;DHT22;667;48.796;9.480;2023-06-22T10:04:13;31.50;51.60
1347;DHT22;667;48.796;9.480;2023-06-22T10:06:39;31.60;51.70
1347;DHT22;667;48.796;9.480;2023-06-22T10:09:06;31.70;51.30
1347;DHT22;667;48.796;9.480;2023-06-22T10:11:33;31.80;51.00
1347;DHT22;667;48.796;9.480;2023-06-22T10:14:00;31.90;50.60
1347;DHT22;667;48.796;9.480;2023-06-22T10:16:31;32.00;51.00
1347;DHT22;667;48.796;9.480;2023-06-22T10:18:57;32.10;51.40
1347;DHT22;667;48.796;9.480;2023-06-22T10:21:22;32.10;50.60
1347;DHT22;667;48.796;9.480;2023-06-22T10:23:48;32.20;50.60
1347;DHT22;667;48.796;9.480;2023-06-22T10:26:13;32.30;50.30
1347;DHT22;667;48.796;9.480;2023-06-22T10:28:39;32.30;50.60
1347;DHT22;667;48.796;9.480;2023-06-22T10:31:04;32.30;50.40
1347;DHT22;667;48.796;9.480;2023-06-22T10:33:30;32.30;50.70
1347;DHT22;667;48.796;9.480;2023-06-22T10:35:55;32.30;50.60
1347;DHT22;667;48.796;9.480;2023-06-22T10:38:21;32.30;49.90
1347;DHT22;667;48.796;9.480;2023-06-22T10:40:47;32.30;49.80
1347;DHT22;667;48.796;9.480;2023-06-22T10:43:12;32.30;51.00
1347;DHT22;667;48.796;9.480;2023-06-22T10:45:38;32.30;50.10
1347;DHT22;667;48.796;9.480;2023-06-22T10:48:03;32.30;50.20
1347;DHT22;667;48.796;9.480;2023-06-22T10:50:29;32.40;50.00
1347;DHT22;667;48.796;9.480;2023-06-22T10:52:55;32.50;49.80
1347;DHT22;667;48.796;9.480;2023-06-22T10:55:20;32.50;49.20
1347;DHT22;667;48.796;9.480;2023-06-22T10:57:46;32.50;49.10
1347;DHT22;667;48.796;9.480;2023-06-22T11:00:13;32.50;49.30
1347;DHT22;667;48.796;9.480;2023-06-22T11:02:39;32.60;49.90
1347;DHT22;667;48.796;9.480;2023-06-22T11:05:05;32.50;49.90
1347;DHT22;667;48.796;9.480;2023-06-22T11:07:31;32.60;49.10
1347;DHT22;667;48.796;9.480;2023-06-22T11:09:58;32.60;48.80
1347;DHT22;667;48.796;9.480;2023-06-22T11:12:23;32.60;49.00
1347;DHT22;667;48.796;9.480;2023-06-22T11:14:49;32.60;47.90
1347;DHT22;667;48.796;9.480;2023-06-22T11:17:17;32.70;48.60
1347;DHT22;667;48.796;9.480;2023-06-22T11:19:43;32.60;48.60
1347;DHT22;667;48.796;9.480;2023-06-22T11:22:09;32.70;48.40
1347;DHT22;667;48.796;9.480;2023-06-22T11:24:34;32.80;48.60
1347;DHT22;667;48.796;9.480;2023-06-22T11:27:00;32.80;49.80
1347;DHT22;667;48.796;9.480;2023-06-22T11:29:25;32.90;48.80
1347;DHT22;667;48.796;9.480;2023-06-22T11:31:51;32.90;47.90
1347;DHT22;667;48.796;9.480;2023-06-22T11:34:16;32.90;47.60
1347;DHT22;667;48.796;9.480;2023-06-22T11:36:42;32.90;47.70
1347;DHT22;667;48.796;9.480;2023-06-22T11:39:09;33.10;47.80
1347;DHT22;667;48.796;9.480;2023-06-22T11:41:35;33.10;48.10
1347;DHT22;667;48.796;9.480;2023-06-22T11:44:00;33.10;48.10
1347;DHT22;667;48.796;9.480;2023-06-22T11:46:26;33.20;47.50
1347;DHT22;667;48.796;9.480;2023-06-22T11:48:52;33.30;47.30
1347;DHT22;667;48.796;9.480;2023-06-22T11:51:17;33.20;47.20
1347;DHT22;667;48.796;9.480;2023-06-22T11:53:43;33.20;47.50
1347;DHT22;667;48.796;9.480;2023-06-22T11:56:08;33.30;47.60
1347;DHT22;667;48.796;9.480;2023-06-22T11:58:34;33.30;47.30
1347;DHT22;667;48.796;9.480;2023-06-22T12:00:59;33.20;47.30
1347;DHT22;667;48.796;9.480;2023-06-22T12:03:25;33.20;47.30
1347;DHT22;667;48.796;9.480;2023-06-22T12:05:51;33.10;47.50
1347;DHT22;667;48.796;9.480;2023-06-22T12:08:17;33.10;47.50
1347;DHT22;667;48.796;9.480;2023-06-22T12:10:43;33.00;48.00
1347;DHT22;667;48.796;9.480;2023-06-22T12:13:09;32.90;48.50
1347;DHT22;667;48.796;9.480;2023-06-22T12:15:35;32.90;48.30
1347;DHT22;667;48.796;9.480;2023-06-22T12:18:00;32.80;48.00
1347;DHT22;667;48.796;9.480;2023-06-22T12:20:26;32.80;48.20
1347;DHT22;667;48.796;9.480;2023-06-22T12:22:52;32.80;48.80
1347;DHT22;667;48.796;9.480;2023-06-22T12:25:19;32.80;49.40
1347;DHT22;667;48.796;9.480;2023-06-22T12:27:44;32.90;49.00
1347;DHT22;667;48.796;9.480;2023-06-22T12:30:10;32.90;49.10
1347;DHT22;667;48.796;9.480;2023-06-22T12:32:36;32.90;49.60
1347;DHT22;667;48.796;9.480;2023-06-22T12:35:01;32.90;49.70
1347;DHT22;667;48.796;9.480;2023-06-22T12:37:27;32.90;49.50
1347;DHT22;667;48.796;9.480;2023-06-22T12:39:54;32.80;48.90
1347;DHT22;667;48.796;9.480;2023-06-22T12:42:20;32.80;48.80
1347;DHT22;667;48.796;9.480;2023-06-22T12:44:46;32.70;48.90
1347;DHT22;667;48.796;9.480;2023-06-22T12:47:12;32.60;49.70
1347;DHT22;667;48.796;9.480;2023-06-22T12:49:38;32.60;50.30
1347;DHT22;667;48.796;9.480;2023-06-22T12:52:08;32.50;50.50
1347;DHT22;667;48.796;9.480;2023-06-22T12:54:34;32.40;50.80
1347;DHT22;667;48.796;9.480;2023-06-22T12:57:00;32.30;51.00
1347;DHT22;667;48.796;9.480;2023-06-22T12:59:26;32.30;51.50
1347;DHT22;667;48.796;9.480;2023-06-22T13:01:52;32.20;52.00
1347;DHT22;667;48.796;9.480;2023-06-22T13:04:17;32.20;52.80
1347;DHT22;667;48.796;9.480;2023-06-22T13:06:45;32.10;53.50
1347;DHT22;667;48.796;9.480;2023-06-22T13:09:13;32.10;54.30
1347;DHT22;667;48.796;9.480;2023-06-22T13:11:39;32.10;55.00
1347;DHT22;667;48.796;9.480;2023-06-22T13:14:04;32.00;54.60
1347;DHT22;667;48.796;9.480;2023-06-22T13:16:30;32.00;54.20
1347;DHT22;667;48.796;9.480;2023-06-22T13:18:56;32.00;54.50
1347;DHT22;667;48.796;9.480;2023-06-22T13:21:21;32.00;54.60
1347;DHT22;667;48.796;9.480;2023-06-22T13:23:47;32.00;53.90
1347;DHT22;667;48.796;9.480;2023-06-22T13:26:12;31.90;53.10
1347;DHT22;667;48.796;9.480;2023-06-22T13:28:38;31.90;52.30
1347;DHT22;667;48.796;9.480;2023-06-22T13:31:04;32.00;52.10
1347;DHT22;667;48.796;9.480;2023-06-22T13:33:29;32.00;52.90
1347;DHT22;667;48.796;9.480;2023-06-22T13:35:55;32.00;53.80
1347;DHT22;667;48.796;9.480;2023-06-22T13:38:20;32.00;54.00
1347;DHT22;667;48.796;9.480;2023-06-22T13:40:48;32.10;52.80
1347;DHT22;667;48.796;9.480;2023-06-22T13:43:16;32.10;51.90
1347;DHT22;667;48.796;9.480;2023-06-22T13:45:42;32.10;51.90
1347;DHT22;667;48.796;9.480;2023-06-22T13:48:08;32.20;51.80
1347;DHT22;667;48.796;9.480;2023-06-22T13:50:34;32.20;51.70
1347;DHT22;667;48.796;9.480;2023-06-22T13:53:00;32.20;51.20
1347;DHT22;667;48.796;9.480;2023-06-22T13:55:25;32.20;51.10
1347;DHT22;667;48.796;9.480;2023-06-22T13:57:52;32.20;50.90
1347;DHT22;667;48.796;9.480;2023-06-22T14:00:18;32.30;51.40
1347;DHT22;667;48.796;9.480;2023-06-22T14:02:44;32.20;51.00
1347;DHT22;667;48.796;9.480;2023-06-22T14:05:09;32.30;50.80
1347;DHT22;667;48.796;9.480;2023-06-22T14:07:36;32.30;50.30
1347;DHT22;667;48.796;9.480;2023-06-22T14:10:03;32.30;51.00
1347;DHT22;667;48.796;9.480;2023-06-22T14:12:29;32.30;50.70
1347;DHT22;667;48.796;9.480;2023-06-22T14:14:54;32.40;50.80
1347;DHT22;667;48.796;9.480;2023-06-22T14:17:20;32.40;49.30
1347;DHT22;667;48.796;9.480;2023-06-22T14:19:49;32.40;48.10
1347;DHT22;667;48.796;9.480;2023-06-22T14:22:17;32.50;47.80
1347;DHT22;667;48.796;9.480;2023-06-22T14:24:43;32.50;48.80
1347;DHT22;667;48.796;9.480;2023-06-22T14:27:08;32.50;49.20
1347;DHT22;667;48.796;9.480;2023-06-22T14:29:35;32.60;48.80
1347;DHT22;667;48.796;9.480;2023-06-22T14:32:00;32.50;48.00
1347;DHT22;667;48.796;9.480;2023-06-22T14:34:26;32.50;48.00
1347;DHT22;667;48.796;9.480;2023-06-22T14:36:52;32.50;48.20
1347;DHT22;667;48.796;9.480;2023-06-22T14:39:17;32.50;48.40
1347;DHT22;667;48.796;9.480;2023-06-22T14:41:43;32.50;48.20
1347;DHT22;667;48.796;9.480;2023-06-22T14:44:08;32.50;46.70
1347;DHT22;667;48.796;9.480;2023-06-22T14:46:34;32.50;46.50
1347;DHT22;667;48.796;9.480;2023-06-22T14:49:00;32.60;46.70
1347;DHT22;667;48.796;9.480;2023-06-22T14:51:26;32.60;46.50
1347;DHT22;667;48.796;9.480;2023-06-22T14:53:52;32.70;46.40
1347;DHT22;667;48.796;9.480;2023-06-22T14:56:17;32.80;46.20
1347;DHT22;667;48.796;9.480;2023-06-22T14:58:44;32.80;46.10
1347;DHT22;667;48.796;9.480;2023-06-22T15:01:12;32.80;46.30
1347;DHT22;667;48.796;9.480;2023-06-22T15:03:38;32.80;45.40
1347;DHT22;667;48.796;9.480;2023-06-22T15:06:04;32.80;45.10
1347;DHT22;667;48.796;9.480;2023-06-22T15:08:29;32.80;45.60
1347;DHT22;667;48.796;9.480;2023-06-22T15:10:57;32.80;45.30
1347;DHT22;667;48.796;9.480;2023-06-22T15:13:23;32.80;45.50
1347;DHT22;667;48.796;9.480;2023-06-22T15:15:50;32.80;46.00
1347;DHT22;667;48.796;9.480;2023-06-22T15:18:15;32.80;46.10
1347;DHT22;667;48.796;9.480;2023-06-22T15:20:42;32.80;45.70
1347;DHT22;667;48.796;9.480;2023-06-22T15:23:10;32.90;45.50
1347;DHT22;667;48.796;9.480;2023-06-22T15:25:35;32.90;45.50
1347;DHT22;667;48.796;9.480;2023-06-22T15:28:01;32.90;45.70
1347;DHT22;667;48.796;9.480;2023-06-22T15:30:26;32.90;46.00
1347;DHT22;667;48.796;9.480;2023-06-22T15:32:52;32.90;44.60
1347;DHT22;667;48.796;9.480;2023-06-22T15:35:18;32.90;43.80
1347;DHT22;667;48.796;9.480;2023-06-22T15:37:44;32.90;43.10
1347;DHT22;667;48.796;9.480;2023-06-22T15:40:10;32.90;42.60
1347;DHT22;667;48.796;9.480;2023-06-22T15:42:35;32.90;43.00
1347;DHT22;667;48.796;9.480;2023-06-22T15:45:01;33.00;41.80
1347;DHT22;667;48.796;9.480;2023-06-22T15:47:26;33.00;40.60
1347;DHT22;667;48.796;9.480;2023-06-22T15:49:52;33.10;40.20
1347;DHT22;667;48.796;9.480;2023-06-22T15:52:18;33.00;39.80
1347;DHT22;667;48.796;9.480;2023-06-22T15:54:45;33.00;39.80
1347;DHT22;667;48.796;9.480;2023-06-22T15:57:12;32.90;39.40
1347;DHT22;667;48.796;9.480;2023-06-22T15:59:41;32.80;39.10
1347;DHT22;667;48.796;9.480;2023-06-22T16:02:07;32.70;39.20
1347;DHT22;667;48.796;9.480;2023-06-22T16:04:33;32.60;39.20
1347;DHT22;667;48.796;9.480;2023-06-22T16:06:59;32.50;39.30
1347;DHT22;667;48.796;9.480;2023-06-22T16:09:25;32.40;39.50
1347;DHT22;667;48.796;9.480;2023-06-22T16:11:52;32.30;39.70
1347;DHT22;667;48.796;9.480;2023-06-22T16:14:17;32.30;40.00
1347;DHT22;667;48.796;9.480;2023-06-22T16:16:45;32.20;40.20
1347;DHT22;667;48.796;9.480;2023-06-22T16:19:11;32.20;40.50